createdAt,value
2023-05-31T00:02:11.215Z,2.10
2023-05-31T00:04:38.903Z,2.33
2023-05-31T00:07:07.331Z,1.98
2023-05-31T00:09:35.017Z,1.92
2023-05-31T00:12:02.729Z,2.20
2023-05-31T00:14:30.677Z,2.05
2023-05-31T00:19:30.133Z,2.33
2023-05-31T00:21:57.819Z,2.08
2023-05-31T00:24:25.504Z,2.33
2023-05-31T00:26:53.119Z,2.45
2023-05-31T00:29:20.707Z,2.20
2023-05-31T00:31:48.283Z,2.85
2023-05-31T00:34:21.945Z,2.67
2023-05-31T00:36:49.547Z,2.50
2023-05-31T00:39:17.471Z,2.95
2023-05-31T00:41:45.068Z,3.07
2023-05-31T00:44:12.656Z,3.50
2023-05-31T00:46:42.537Z,3.58
2023-05-31T00:49:10.396Z,3.85
2023-05-31T00:51:38.542Z,4.30
2023-05-31T00:54:06.936Z,3.90
2023-05-31T00:56:35.049Z,4.90
2023-05-31T00:59:03.117Z,4.60
2023-05-31T01:01:34.865Z,4.72
2023-05-31T01:04:04.319Z,4.60
2023-05-31T01:06:35.905Z,5.00
2023-05-31T01:09:06.348Z,5.05
2023-05-31T01:12:11.018Z,5.80
2023-05-31T01:14:56.859Z,5.00
2023-05-31T01:17:35.782Z,5.25
2023-05-31T01:20:10.193Z,5.23
2023-05-31T01:23:02.862Z,5.68
2023-05-31T01:25:47.839Z,5.43
2023-05-31T01:28:17.884Z,4.95
2023-05-31T01:30:49.880Z,4.45
2023-05-31T01:33:19.294Z,4.10
2023-05-31T01:35:46.897Z,3.15
2023-05-31T01:38:14.592Z,3.45
2023-05-31T01:40:42.603Z,3.50
2023-05-31T01:43:11.736Z,3.58
2023-05-31T01:45:40.528Z,3.50
2023-05-31T01:48:11.225Z,3.30
2023-05-31T01:50:41.306Z,3.75
2023-05-31T01:53:09.051Z,3.38
2023-05-31T01:55:36.674Z,3.22
2023-05-31T01:58:05.964Z,3.10
2023-05-31T02:00:36.242Z,3.28
2023-05-31T02:03:06.071Z,3.38
2023-05-31T02:05:34.070Z,3.10
2023-05-31T02:08:01.744Z,3.20
2023-05-31T02:10:29.670Z,3.13
2023-05-31T02:12:57.539Z,2.88
2023-05-31T02:15:25.200Z,2.92
2023-05-31T02:17:52.809Z,2.55
2023-05-31T02:20:20.764Z,2.88
2023-05-31T02:22:48.992Z,2.60
2023-05-31T02:25:19.678Z,2.90
2023-05-31T02:27:47.269Z,3.90
2023-05-31T02:30:16.506Z,3.83
2023-05-31T02:32:45.509Z,3.50
2023-05-31T02:35:13.377Z,3.30
2023-05-31T02:37:42.474Z,2.75
2023-05-31T02:40:10.228Z,3.00
2023-05-31T02:42:40.968Z,2.75
2023-05-31T02:45:11.185Z,2.92
2023-05-31T02:47:40.099Z,2.87
2023-05-31T02:50:09.244Z,3.25
2023-05-31T02:52:42.058Z,4.45
2023-05-31T02:55:21.831Z,3.92
2023-05-31T02:58:09.765Z,4.47
2023-05-31T03:00:42.075Z,3.87
2023-05-31T03:03:11.788Z,4.13
2023-05-31T03:05:49.754Z,4.20
2023-05-31T03:08:17.939Z,4.65
2023-05-31T03:10:45.944Z,4.78
2023-05-31T03:13:13.702Z,4.97
2023-05-31T03:15:41.378Z,4.55
2023-05-31T03:18:09.256Z,4.15
2023-05-31T03:20:39.855Z,4.43
2023-05-31T03:23:08.399Z,4.10
2023-05-31T03:25:36.584Z,4.07
2023-05-31T03:28:04.914Z,4.00
2023-05-31T03:30:33.798Z,4.47
2023-05-31T03:33:04.192Z,4.65
2023-05-31T03:35:32.425Z,5.00
2023-05-31T03:38:03.213Z,4.40
2023-05-31T03:40:31.762Z,5.00
2023-05-31T03:43:00.113Z,4.80
2023-05-31T03:45:29.342Z,4.78
2023-05-31T03:47:57.568Z,4.57
2023-05-31T03:50:25.227Z,5.63
2023-05-31T03:52:52.889Z,5.15
2023-05-31T03:55:21.860Z,5.28
2023-05-31T03:57:50.202Z,5.93
2023-05-31T04:00:19.565Z,6.07
2023-05-31T04:03:04.334Z,5.77
2023-05-31T04:05:34.846Z,4.95
2023-05-31T04:08:03.344Z,4.80
2023-05-31T04:10:33.979Z,5.10
2023-05-31T04:13:01.857Z,5.63
2023-05-31T04:15:30.357Z,5.80
2023-05-31T04:18:01.737Z,6.00
2023-05-31T04:20:29.840Z,6.03
2023-05-31T04:22:57.558Z,5.65
2023-05-31T04:25:26.420Z,6.28
2023-05-31T04:27:55.925Z,5.67
2023-05-31T04:30:25.395Z,6.47
2023-05-31T04:32:54.101Z,5.93
2023-05-31T04:35:23.430Z,5.85
2023-05-31T04:37:54.034Z,5.57
2023-05-31T04:40:21.820Z,5.70
2023-05-31T04:42:49.661Z,6.07
2023-05-31T04:45:26.921Z,5.22
2023-05-31T04:47:56.253Z,5.57
2023-05-31T04:50:24.271Z,5.72
2023-05-31T04:52:52.605Z,5.07
2023-05-31T04:55:20.510Z,4.90
2023-05-31T04:57:48.183Z,4.22
2023-05-31T05:00:17.274Z,4.25
2023-05-31T05:03:19.519Z,4.78
2023-05-31T05:05:49.100Z,4.40
2023-05-31T05:08:16.969Z,4.50
2023-05-31T05:10:44.788Z,4.30
2023-05-31T05:13:13.727Z,4.18
2023-05-31T05:15:43.376Z,4.53
2023-05-31T05:18:12.065Z,5.13
2023-05-31T05:20:40.509Z,5.43
2023-05-31T05:23:08.943Z,6.07
2023-05-31T05:25:37.166Z,7.10
2023-05-31T05:28:05.013Z,5.80
2023-05-31T05:30:33.610Z,6.07
2023-05-31T05:33:01.735Z,5.93
2023-05-31T05:35:30.363Z,5.32
2023-05-31T05:38:00.414Z,5.90
2023-05-31T05:40:28.037Z,5.90
2023-05-31T05:42:56.426Z,5.57
2023-05-31T05:45:24.973Z,5.97
2023-05-31T05:47:57.132Z,5.50
2023-05-31T05:50:25.631Z,5.07
2023-05-31T05:52:53.947Z,4.70
2023-05-31T05:55:22.317Z,4.43
2023-05-31T05:57:50.056Z,4.95
2023-05-31T06:00:41.618Z,4.50
2023-05-31T06:03:09.478Z,4.93
2023-05-31T06:05:37.433Z,4.13
2023-05-31T06:08:06.104Z,4.37
2023-05-31T06:10:33.777Z,4.95
2023-05-31T06:13:01.513Z,5.05
2023-05-31T06:15:29.367Z,5.32
2023-05-31T06:17:57.125Z,5.03
2023-05-31T06:20:24.805Z,4.97
2023-05-31T06:22:52.872Z,7.28
2023-05-31T06:25:21.790Z,7.70
2023-05-31T06:27:49.565Z,8.57
2023-05-31T06:30:17.965Z,8.25
2023-05-31T06:32:47.612Z,9.33
2023-05-31T06:35:24.072Z,7.75
2023-05-31T06:37:52.715Z,9.13
2023-05-31T06:40:20.438Z,8.68
2023-05-31T06:42:48.323Z,8.93
2023-05-31T06:45:29.315Z,7.73
2023-05-31T06:48:15.656Z,9.60
2023-05-31T06:51:03.398Z,8.30
2023-05-31T06:53:51.151Z,8.73
2023-05-31T06:56:25.079Z,8.55
2023-05-31T06:58:53.024Z,8.10
2023-05-31T07:01:20.779Z,7.82
2023-05-31T07:03:48.495Z,8.05
2023-05-31T07:06:16.477Z,8.70
2023-05-31T07:08:44.413Z,8.23
2023-05-31T07:11:30.593Z,8.27
2023-05-31T07:14:02.669Z,8.55
2023-05-31T07:16:30.888Z,7.85
2023-05-31T07:19:00.340Z,8.15
2023-05-31T07:21:28.085Z,7.50
2023-05-31T07:23:56.834Z,7.27
2023-05-31T07:26:24.421Z,7.97
2023-05-31T07:28:54.790Z,7.93
2023-05-31T07:31:23.588Z,8.50
2023-05-31T07:33:51.229Z,8.80
2023-05-31T07:36:19.561Z,8.73
2023-05-31T07:38:47.621Z,9.48
2023-05-31T07:41:16.697Z,8.57
2023-05-31T07:43:47.026Z,9.20
2023-05-31T07:46:14.963Z,8.88
2023-05-31T07:48:42.642Z,8.17
2023-05-31T07:51:10.446Z,7.53
2023-05-31T07:53:38.066Z,7.40
2023-05-31T07:56:05.936Z,7.63
2023-05-31T07:58:33.536Z,8.27
2023-05-31T08:01:01.762Z,7.60
2023-05-31T08:03:29.561Z,7.20
2023-05-31T08:05:57.749Z,6.63
2023-05-31T08:08:25.429Z,6.43
2023-05-31T08:10:53.554Z,6.93
2023-05-31T08:13:21.486Z,7.23
2023-05-31T08:15:49.144Z,7.32
2023-05-31T08:18:17.223Z,8.57
2023-05-31T08:20:49.597Z,7.88
2023-05-31T08:23:21.938Z,8.05
2023-05-31T08:25:50.120Z,7.80
2023-05-31T08:28:17.749Z,7.72
2023-05-31T08:30:46.039Z,7.28
2023-05-31T08:33:13.802Z,7.63
2023-05-31T08:35:42.187Z,8.55
2023-05-31T08:38:10.214Z,8.40
2023-05-31T08:40:38.849Z,9.80
2023-05-31T08:43:17.507Z,8.77
2023-05-31T08:45:45.409Z,9.40
2023-05-31T08:48:27.492Z,10.88
2023-05-31T08:50:57.562Z,10.83
2023-05-31T08:53:26.988Z,8.93
2023-05-31T08:55:55.284Z,10.90
2023-05-31T08:58:23.674Z,10.82
2023-05-31T09:00:51.490Z,10.77
2023-05-31T09:03:19.769Z,11.13
2023-05-31T09:05:47.566Z,10.25
2023-05-31T09:08:15.237Z,10.45
2023-05-31T09:10:42.892Z,10.05
2023-05-31T09:13:11.564Z,10.38
2023-05-31T09:15:40.801Z,9.63
2023-05-31T09:18:20.606Z,9.50
2023-05-31T09:20:50.022Z,9.73
2023-05-31T09:23:19.069Z,9.32
2023-05-31T09:25:52.163Z,9.15
2023-05-31T09:28:21.496Z,9.37
2023-05-31T09:31:08.766Z,9.32
2023-05-31T09:33:43.319Z,8.55
2023-05-31T09:36:17.087Z,8.93
2023-05-31T09:38:44.761Z,10.10
2023-05-31T09:41:22.457Z,10.57
2023-05-31T09:43:51.251Z,8.50
2023-05-31T09:46:21.722Z,7.85
2023-05-31T09:49:02.777Z,8.05
2023-05-31T09:51:35.486Z,8.90
2023-05-31T09:54:15.522Z,8.73
2023-05-31T09:56:45.120Z,7.57
2023-05-31T09:59:13.140Z,7.55
2023-05-31T10:01:41.185Z,8.45
2023-05-31T10:04:09.069Z,8.05
2023-05-31T10:06:37.598Z,7.87
2023-05-31T10:09:06.315Z,7.63
2023-05-31T10:11:36.273Z,7.68
2023-05-31T10:14:22.067Z,7.60
2023-05-31T10:17:00.513Z,8.95
2023-05-31T10:19:36.076Z,7.70
2023-05-31T10:22:05.619Z,8.25
2023-05-31T10:24:50.263Z,8.45
2023-05-31T10:27:22.955Z,7.88
2023-05-31T10:29:53.610Z,7.55
2023-05-31T10:32:26.533Z,6.97
2023-05-31T10:34:54.559Z,7.32
2023-05-31T10:37:23.269Z,7.93
2023-05-31T10:40:15.358Z,8.00
2023-05-31T10:43:01.901Z,8.63
2023-05-31T10:45:42.475Z,8.50
2023-05-31T10:48:22.168Z,8.27
2023-05-31T10:50:57.220Z,8.35
2023-05-31T10:53:31.178Z,8.80
2023-05-31T10:56:12.338Z,8.40
2023-05-31T10:58:58.396Z,8.47
2023-05-31T11:01:30.416Z,9.05
2023-05-31T11:03:58.997Z,8.90
2023-05-31T11:06:28.744Z,8.95
2023-05-31T11:09:19.308Z,8.43
2023-05-31T11:11:49.906Z,8.10
2023-05-31T11:14:17.544Z,7.82
2023-05-31T11:16:45.210Z,8.63
2023-05-31T11:19:21.154Z,8.10
2023-05-31T11:21:49.770Z,8.63
2023-05-31T11:24:52.787Z,9.10
2023-05-31T11:27:40.207Z,9.00
2023-05-31T11:30:14.209Z,9.75
2023-05-31T11:32:41.944Z,10.02
2023-05-31T11:35:16.800Z,10.68
2023-05-31T11:37:44.976Z,9.90
2023-05-31T11:40:15.705Z,9.05
2023-05-31T11:42:45.357Z,10.32
2023-05-31T11:45:21.504Z,9.50
2023-05-31T11:47:54.739Z,8.75
2023-05-31T11:50:25.178Z,8.27
2023-05-31T11:52:59.493Z,8.38
2023-05-31T11:55:36.539Z,9.20
2023-05-31T11:58:08.080Z,7.95
2023-05-31T12:00:36.186Z,8.25
2023-05-31T12:03:06.925Z,8.00
2023-05-31T12:05:34.824Z,7.72
2023-05-31T12:08:02.461Z,7.00
2023-05-31T12:10:32.465Z,6.78
2023-05-31T12:13:02.910Z,7.15
2023-05-31T12:15:32.546Z,6.57
2023-05-31T12:18:00.638Z,6.95
2023-05-31T12:20:29.365Z,6.72
2023-05-31T12:23:17.074Z,6.93
2023-05-31T12:25:46.532Z,7.07
2023-05-31T12:28:14.722Z,7.17
2023-05-31T12:30:49.238Z,6.80
2023-05-31T12:33:17.314Z,6.80
2023-05-31T12:35:47.086Z,6.53
2023-05-31T12:38:15.088Z,6.97
2023-05-31T12:40:44.220Z,7.00
2023-05-31T12:43:14.046Z,7.05
2023-05-31T12:45:42.710Z,6.18
2023-05-31T12:48:11.928Z,6.20
2023-05-31T12:50:47.163Z,6.13
2023-05-31T12:53:16.362Z,5.87
2023-05-31T12:55:44.177Z,5.88
2023-05-31T12:58:12.192Z,6.30
2023-05-31T13:00:39.933Z,6.35
2023-05-31T13:03:15.695Z,6.38
2023-05-31T13:05:43.720Z,6.10
2023-05-31T13:08:11.367Z,6.03
2023-05-31T13:10:39.038Z,5.75
2023-05-31T13:13:06.785Z,6.13
2023-05-31T13:15:34.565Z,6.60
2023-05-31T13:18:02.285Z,7.00
2023-05-31T13:20:30.603Z,7.80
2023-05-31T13:22:59.372Z,7.40
2023-05-31T13:25:27.639Z,6.45
2023-05-31T13:27:56.048Z,6.70
2023-05-31T13:30:23.851Z,6.17
2023-05-31T13:32:51.884Z,5.82
2023-05-31T13:35:19.566Z,6.47
2023-05-31T13:37:47.239Z,5.80
2023-05-31T13:40:14.953Z,6.40
2023-05-31T13:42:42.596Z,6.20
2023-05-31T13:45:10.841Z,6.43
2023-05-31T13:47:38.687Z,5.90
2023-05-31T13:50:06.939Z,6.18
2023-05-31T13:52:34.512Z,6.30
2023-05-31T13:55:02.180Z,6.67
2023-05-31T13:57:29.929Z,6.75
2023-05-31T14:00:00.877Z,6.38
2023-05-31T14:02:29.453Z,6.30
2023-05-31T14:04:57.208Z,6.38
2023-05-31T14:07:24.874Z,6.13
2023-05-31T14:09:52.527Z,6.07
2023-05-31T14:12:20.810Z,6.18
2023-05-31T14:14:48.500Z,5.80
2023-05-31T14:17:16.288Z,6.35
2023-05-31T14:19:43.914Z,6.30
2023-05-31T14:22:11.525Z,6.18
2023-05-31T14:24:39.145Z,6.40
2023-05-31T14:27:07.988Z,5.30
2023-05-31T14:29:35.734Z,5.78
2023-05-31T14:32:03.952Z,5.50
2023-05-31T14:34:31.661Z,5.65
2023-05-31T14:36:59.714Z,5.35
2023-05-31T14:39:28.121Z,5.30
2023-05-31T14:41:56.892Z,5.30
2023-05-31T14:44:24.556Z,4.80
2023-05-31T14:46:56.348Z,4.97
2023-05-31T14:49:24.058Z,4.57
2023-05-31T14:51:51.816Z,4.50
2023-05-31T14:54:19.706Z,4.95
2023-05-31T14:56:47.388Z,4.30
2023-05-31T14:59:15.159Z,4.68
2023-05-31T15:01:44.244Z,4.55
2023-05-31T15:04:12.533Z,4.97
2023-05-31T15:06:41.783Z,4.53
2023-05-31T15:09:11.690Z,4.70
2023-05-31T15:11:39.416Z,4.90
2023-05-31T15:14:08.986Z,4.88
2023-05-31T15:16:37.161Z,4.82
2023-05-31T15:19:04.777Z,4.43
2023-05-31T15:21:32.697Z,4.20
2023-05-31T15:24:00.467Z,4.30
2023-05-31T15:26:28.452Z,4.38
2023-05-31T15:28:56.952Z,4.20
2023-05-31T15:31:25.542Z,5.07
2023-05-31T15:33:53.530Z,5.77
2023-05-31T15:36:21.189Z,4.88
2023-05-31T15:38:51.480Z,5.55
2023-05-31T15:41:19.170Z,4.90
2023-05-31T15:43:46.816Z,5.00
2023-05-31T15:46:14.570Z,5.07
2023-05-31T15:48:42.234Z,5.15
2023-05-31T15:51:09.861Z,5.03
2023-05-31T15:53:37.523Z,5.07
2023-05-31T15:56:05.432Z,5.43
2023-05-31T15:58:33.048Z,4.93
2023-05-31T16:01:01.044Z,4.70
2023-05-31T16:03:30.246Z,5.20
2023-05-31T16:05:58.039Z,5.22
2023-05-31T16:08:26.250Z,5.03
2023-05-31T16:10:53.893Z,4.87
2023-05-31T16:13:21.527Z,5.03
2023-05-31T16:15:49.183Z,5.55
2023-05-31T16:18:16.890Z,5.38
2023-05-31T16:20:44.670Z,5.40
2023-05-31T16:23:12.360Z,5.13
2023-05-31T16:25:40.029Z,5.22
2023-05-31T16:28:07.661Z,4.85
2023-05-31T16:30:35.417Z,4.85
2023-05-31T16:33:03.301Z,5.13
2023-05-31T16:35:31.007Z,5.10
2023-05-31T16:37:58.658Z,5.28
2023-05-31T16:40:26.346Z,4.95
2023-05-31T16:42:55.795Z,4.53
2023-05-31T16:45:24.781Z,5.20
2023-05-31T16:47:52.824Z,5.07
2023-05-31T16:50:20.758Z,4.72
2023-05-31T16:52:53.012Z,4.90
2023-05-31T16:55:21.944Z,4.78
2023-05-31T16:57:49.736Z,4.35
2023-05-31T17:00:18.007Z,4.50
2023-05-31T17:02:45.620Z,4.55
2023-05-31T17:05:14.505Z,4.85
2023-05-31T17:07:42.105Z,4.82
2023-05-31T17:10:10.072Z,4.35
2023-05-31T17:12:38.761Z,4.53
2023-05-31T17:15:07.473Z,4.35
2023-05-31T17:17:35.135Z,4.22
2023-05-31T17:20:04.597Z,4.50
2023-05-31T17:22:32.275Z,4.47
2023-05-31T17:24:59.863Z,4.53
2023-05-31T17:27:27.458Z,4.38
2023-05-31T17:29:55.120Z,4.50
2023-05-31T17:32:22.852Z,4.60
2023-05-31T17:34:50.585Z,4.32
2023-05-31T17:37:18.218Z,4.37
2023-05-31T17:39:46.017Z,4.30
2023-05-31T17:42:13.620Z,4.18
2023-05-31T17:44:41.348Z,4.05
2023-05-31T17:47:10.002Z,4.80
2023-05-31T17:49:37.625Z,4.90
2023-05-31T17:52:07.342Z,4.63
2023-05-31T17:54:34.975Z,6.70
2023-05-31T17:57:02.483Z,6.43
2023-05-31T17:59:30.613Z,6.45
2023-05-31T18:01:59.150Z,6.30
2023-05-31T18:04:27.693Z,6.78
2023-05-31T18:06:55.546Z,6.90
2023-05-31T18:09:24.702Z,7.43
2023-05-31T18:11:53.426Z,9.23
2023-05-31T18:14:21.076Z,8.53
2023-05-31T18:16:51.112Z,6.97
2023-05-31T18:19:19.053Z,6.53
2023-05-31T18:21:46.970Z,8.20
2023-05-31T18:24:14.842Z,5.57
2023-05-31T18:26:42.405Z,5.83
2023-05-31T18:29:10.755Z,5.57
2023-05-31T18:31:38.823Z,4.43
2023-05-31T18:34:06.549Z,3.63
2023-05-31T18:36:34.171Z,3.97
2023-05-31T18:39:01.797Z,4.67
2023-05-31T18:41:29.380Z,3.97
2023-05-31T18:43:57.016Z,4.43
2023-05-31T18:46:25.097Z,3.63
2023-05-31T18:48:52.760Z,3.60
2023-05-31T18:51:20.425Z,3.63
2023-05-31T18:53:48.049Z,3.35
2023-05-31T18:56:16.602Z,3.78
2023-05-31T18:58:44.921Z,3.60
2023-05-31T19:01:12.638Z,3.50
2023-05-31T19:03:40.554Z,3.27
2023-05-31T19:06:08.785Z,3.13
2023-05-31T19:08:36.519Z,3.58
2023-05-31T19:11:04.215Z,3.58
2023-05-31T19:13:31.879Z,3.55
2023-05-31T19:15:59.715Z,3.63
2023-05-31T19:18:27.548Z,3.33
2023-05-31T19:20:55.232Z,3.38
2023-05-31T19:23:26.305Z,3.28
2023-05-31T19:25:54.166Z,3.17
2023-05-31T19:28:21.731Z,3.50
2023-05-31T19:30:49.486Z,3.17
2023-05-31T19:33:19.294Z,3.75
2023-05-31T19:35:49.152Z,3.33
2023-05-31T19:38:17.018Z,2.97
2023-05-31T19:40:44.690Z,3.63
2023-05-31T19:43:12.381Z,3.40
2023-05-31T19:45:40.041Z,3.25
2023-05-31T19:48:10.681Z,3.10
2023-05-31T19:50:38.441Z,2.78
2023-05-31T19:53:06.114Z,3.07
2023-05-31T19:55:33.888Z,3.10
2023-05-31T19:58:01.628Z,2.55
2023-05-31T20:00:29.251Z,2.50
2023-05-31T20:02:56.989Z,2.60
2023-05-31T20:05:24.953Z,2.60
2023-05-31T20:07:52.669Z,2.40
2023-05-31T20:10:20.494Z,2.80
2023-05-31T20:12:48.112Z,2.80
2023-05-31T20:15:16.756Z,2.75
2023-05-31T20:17:44.448Z,2.67
2023-05-31T20:20:13.244Z,3.15
2023-05-31T20:22:41.014Z,3.10
2023-05-31T20:25:08.972Z,2.80
2023-05-31T20:27:36.584Z,3.00
2023-05-31T20:30:04.638Z,2.90
2023-05-31T20:32:32.281Z,2.72
2023-05-31T20:35:00.210Z,2.80
2023-05-31T20:37:27.987Z,2.92
2023-05-31T20:39:55.869Z,2.65
2023-05-31T20:42:23.537Z,2.90
2023-05-31T20:44:51.220Z,2.67
2023-05-31T20:47:19.103Z,2.90
2023-05-31T20:49:46.828Z,2.85
2023-05-31T20:52:14.476Z,2.88
2023-05-31T20:54:44.278Z,3.10
2023-05-31T20:57:12.373Z,2.83
2023-05-31T20:59:40.576Z,2.67
2023-05-31T21:02:08.258Z,2.38
2023-05-31T21:04:35.869Z,2.80
2023-05-31T21:07:03.820Z,2.60
2023-05-31T21:09:31.482Z,2.70
2023-05-31T21:11:59.763Z,2.88
2023-05-31T21:14:27.379Z,2.70
2023-05-31T21:16:55.793Z,2.85
2023-05-31T21:19:23.424Z,2.50
2023-05-31T21:21:51.383Z,2.70
2023-05-31T21:24:19.209Z,2.75
2023-05-31T21:26:46.860Z,3.08
2023-05-31T21:29:14.521Z,2.88
2023-05-31T21:31:42.430Z,2.63
2023-05-31T21:34:10.178Z,2.85
2023-05-31T21:36:37.819Z,2.90
2023-05-31T21:39:05.433Z,2.90
2023-05-31T21:41:33.113Z,3.28
2023-05-31T21:44:00.933Z,2.80
2023-05-31T21:46:28.583Z,2.90
2023-05-31T21:48:56.650Z,3.00
2023-05-31T21:51:24.243Z,3.00
2023-05-31T21:53:51.824Z,2.55
2023-05-31T21:56:19.531Z,2.60
2023-05-31T21:58:47.111Z,2.85
2023-05-31T22:01:14.794Z,3.28
2023-05-31T22:03:42.730Z,2.83
2023-05-31T22:06:10.509Z,3.08
2023-05-31T22:08:38.164Z,3.10
2023-05-31T22:11:05.948Z,3.40
2023-05-31T22:13:33.722Z,3.13
2023-05-31T22:16:01.427Z,3.50
2023-05-31T22:18:32.204Z,3.42
2023-05-31T22:21:00.237Z,3.33
2023-05-31T22:23:28.052Z,3.40
2023-05-31T22:25:55.984Z,3.20
2023-05-31T22:28:23.764Z,3.20
2023-05-31T22:30:52.445Z,3.03
2023-05-31T22:33:20.165Z,2.90
2023-05-31T22:35:47.787Z,3.05
2023-05-31T22:38:15.588Z,2.97
2023-05-31T22:40:43.290Z,3.17
2023-05-31T22:43:11.114Z,3.50
2023-05-31T22:45:38.750Z,3.20
2023-05-31T22:48:06.467Z,2.92
2023-05-31T22:50:34.134Z,3.63
2023-05-31T22:53:01.723Z,2.55
2023-05-31T22:55:29.381Z,2.97
2023-05-31T22:57:57.286Z,3.33
2023-05-31T23:00:24.878Z,3.47
2023-05-31T23:02:53.376Z,2.90
2023-05-31T23:05:26.758Z,2.90
2023-05-31T23:08:02.687Z,3.17
2023-05-31T23:10:33.815Z,3.27
2023-05-31T23:13:03.445Z,2.60
2023-05-31T23:15:37.013Z,2.88
2023-05-31T23:18:09.025Z,2.78
2023-05-31T23:20:41.120Z,2.40
2023-05-31T23:23:09.134Z,2.90
2023-05-31T23:25:36.880Z,2.63
2023-05-31T23:28:04.563Z,2.50
2023-05-31T23:30:32.233Z,2.80
2023-05-31T23:32:59.877Z,2.60
2023-05-31T23:35:27.580Z,3.00
2023-05-31T23:37:55.230Z,2.33
2023-05-31T23:40:22.806Z,2.70
2023-05-31T23:42:50.748Z,2.42
2023-05-31T23:45:18.551Z,2.38
2023-05-31T23:47:46.730Z,2.90
2023-05-31T23:50:14.331Z,2.63
2023-05-31T23:52:42.006Z,2.38
2023-05-31T23:55:10.158Z,2.47
2023-05-31T23:57:37.789Z,2.55
